• Join FlightAware (Why Join?)
  • Login
  • US Flag 
02:21AM EDT


 

Airport Tracker/Info


-or-


 

Live Flight TrackerFlight Track Log ✈ N208ML ✈ 07-Jun-2013 ✈ KAZO - KYIP

Flight Track Log - Related Links

Times and Time Zones

All times are in EDT time to prevent confusion due to time zone crossing. See the N208ML flight status page for this flight to view local times or setup timezone preferences in your user account.

Time Position Orientation Groundspeed Altitude Reporting Facility
EDT Latitude Longitude Course Direction KTS MPH feet Rate Location/Type
02:27PM 42.2411 -85.4503 107° East 140 161 3,500  Level Chicago Center
02:28PM 42.2286 -85.4025 109° East 138 159 4,600 720 Climbing Chicago Center
02:29PM 42.2189 -85.3514 104° East 139 160 5,000 180 Climbing Chicago Center
02:30PM 42.2042 -85.2933 109° East 155 178 5,000  Level Chicago Center
02:31PM 42.1517 -85.1847 107° East  Level FlightAware Approximate
02:31PM 42.1850 -85.2206 110° East 168 193 5,000  Level Chicago Center
02:32PM 42.1376 -85.1239 107° East  Level FlightAware Approximate
02:32PM 42.1686 -85.1583 110° East 173 199 5,000  Level Chicago Center
02:33PM 42.1525 -85.0961 109° East 175 201 5,000  Level Chicago Center
02:34PM 42.1350 -85.0333 111° Southeast 177 204 5,000  Level Chicago Center
02:35PM 42.1186 -84.9706 109° East 178 205 5,000  Level Chicago Center
02:36PM 42.1019 -84.9086 110° East 176 203 5,000  Level Chicago Center
02:37PM 42.0822 -84.8356 110° East 174 200 5,000  Level Chicago Center
02:38PM 42.0658 -84.7725 109° East 176 203 5,000  Level Chicago Center
02:39PM 42.0536 -84.7081 104° East 177 204 5,000  Level Chicago Center
02:40PM 42.0458 -84.6450 99° East 176 203 5,000  Level Chicago Center
02:41PM 42.0369 -84.5811 101° East 175 201 5,000  Level Chicago Center
02:42PM 42.0275 -84.5156 101° East 176 203 5,000  Level Chicago Center
02:43PM 42.0156 -84.4386 102° East 176 203 5,000  Level Chicago Center
02:44PM 42.0067 -84.3753 101° East 175 201 5,000  Level Chicago Center
02:45PM 42.0006 -84.3444 105° East 171 197 5,000  Level Cleveland Center
02:46PM 41.9878 -84.2489 100° East 173 199 5,000  Level Chicago Center
02:47PM 41.9764 -84.1836 103° East 176 203 5,000  Level Cleveland Center
02:48PM 41.9719 -84.1219 96° East 172 198 5,000 -120 Level Cleveland Center
02:49PM 41.9969 -84.0592 62° Northeast 173 199 4,800 -360 Descending Cleveland Center
02:50PM 42.0131 -84.0042 68° East 176 203 4,300 -600 Descending Cleveland Center
02:51PM 42.0297 -83.9350 72° East 166 191 3,700 -660 Descending Cleveland Center
02:52PM 42.0461 -83.8800 68° East 151 174 3,000 -420 Descending Cleveland Center
02:53PM 42.0597 -83.8386 66° East 135 155 3,000  Level Cleveland Center
02:55PM 42.0736 -83.7836 71° East 138 159 3,000  Level Cleveland Center
02:56PM 42.0958 -83.7342 59° Northeast 150 173 3,100  Climbing Cleveland Center
02:57PM 42.1219 -83.6992 45° Northeast 144 166 3,000 -60 Descending Cleveland Center
02:58PM 42.1500 -83.6642 43° Northeast 126 145 3,000 -180 Level Cleveland Center
02:58PM 42.1697 -83.6314 51° Northeast 117 135 2,700 -540 Descending Cleveland Center
03:00PM 42.1914 -83.6017 45° Northeast 113 130 2,000 -660 Descending Cleveland Center
03:01PM 42.2172 -83.5664 45° Northeast 109 125 1,300 -660 Descending Cleveland Center
03:03PM 42.2333 -83.5167 66° East  Level FlightAware Approximate